Terminal Aerodrome Forecast
Issued by NWS

Current Version | Previous Version | Graphics & Text | Print | Product List | Glossary On
Versions: 1 2 3 4 5 6 7 8 9 10 11 12 13 14 15 16 17 18 19 20 21 22 23 24 25
000
FTUS41 KPBZ 271120
TAFMGW
TAF
KMGW 271120Z 2712/2812 12010G16KT P6SM BKN050 WS020/17030KT
     FM271300 15012G18KT 3SM -RA BR OVC020 WS020/17030KT
     FM271800 20011G19KT P6SM BKN030 PROB30 2721/2722 3SM -TSRA
      BKN025CB
     FM272300 23012KT P6SM OVC015=

USA.gov is the U.S. government's official web portal to all federal, state and local government web resources and services.